sensor_id;sensor_type;location;lat;lon;timestamp;pressure;altitude;pressure_sealevel;temperature;humidity
58070;BME280;43863;52.256;21.048;2022-09-28T00:01:46;98719.50;;;15.17;72.88
58070;BME280;43863;52.256;21.048;2022-09-28T00:04:14;98725.13;;;15.15;73.17
58070;BME280;43863;52.256;21.048;2022-09-28T00:06:42;98724.81;;;15.12;73.09
58070;BME280;43863;52.256;21.048;2022-09-28T00:09:10;98724.22;;;15.10;73.34
58070;BME280;43863;52.256;21.048;2022-09-28T00:11:37;98728.19;;;15.07;73.45
58070;BME280;43863;52.256;21.048;2022-09-28T00:14:06;98724.47;;;15.08;73.58
58070;BME280;43863;52.256;21.048;2022-09-28T00:16:38;98726.03;;;15.04;73.67
58070;BME280;43863;52.256;21.048;2022-09-28T00:19:06;98718.97;;;14.98;73.97
58070;BME280;43863;52.256;21.048;2022-09-28T00:21:36;98722.38;;;14.93;73.92
58070;BME280;43863;52.256;21.048;2022-09-28T00:24:05;98714.03;;;14.90;74.48
58070;BME280;43863;52.256;21.048;2022-09-28T00:26:52;98714.84;;;14.90;74.92
58070;BME280;43863;52.256;21.048;2022-09-28T00:29:26;98710.34;;;14.74;75.76
58070;BME280;43863;52.256;21.048;2022-09-28T00:31:59;98709.13;;;14.65;76.81
58070;BME280;43863;52.256;21.048;2022-09-28T00:34:32;98713.00;;;14.57;77.20
58070;BME280;43863;52.256;21.048;2022-09-28T00:37:03;98709.44;;;14.51;77.49
58070;BME280;43863;52.256;21.048;2022-09-28T00:39:31;98721.31;;;14.44;78.23
58070;BME280;43863;52.256;21.048;2022-09-28T00:41:59;98716.50;;;14.46;78.67
58070;BME280;43863;52.256;21.048;2022-09-28T00:44:39;98721.63;;;14.47;78.25
58070;BME280;43863;52.256;21.048;2022-09-28T00:47:54;98724.06;;;14.32;77.75
58070;BME280;43863;52.256;21.048;2022-09-28T00:53:00;98717.38;;;14.18;78.75
58070;BME280;43863;52.256;21.048;2022-09-28T00:55:48;98725.06;;;14.14;78.65
58070;BME280;43863;52.256;21.048;2022-09-28T00:58:27;98721.56;;;14.14;78.42
58070;BME280;43863;52.256;21.048;2022-09-28T01:00:57;98728.81;;;14.01;78.27
58070;BME280;43863;52.256;21.048;2022-09-28T01:03:26;98719.13;;;13.83;78.09
58070;BME280;43863;52.256;21.048;2022-09-28T01:05:57;98721.50;;;13.68;78.21
58070;BME280;43863;52.256;21.048;2022-09-28T01:08:26;98719.78;;;13.62;78.70
58070;BME280;43863;52.256;21.048;2022-09-28T01:10:56;98717.72;;;13.64;79.01
58070;BME280;43863;52.256;21.048;2022-09-28T01:13:27;98712.38;;;13.64;78.98
58070;BME280;43863;52.256;21.048;2022-09-28T01:21:49;98710.28;;;13.54;79.33
58070;BME280;43863;52.256;21.048;2022-09-28T01:24:31;98710.75;;;13.51;79.48
58070;BME280;43863;52.256;21.048;2022-09-28T01:27:43;98709.03;;;13.45;79.87
58070;BME280;43863;52.256;21.048;2022-09-28T01:30:20;98709.38;;;13.49;79.90
58070;BME280;43863;52.256;21.048;2022-09-28T01:35:44;98708.94;;;13.40;80.10
58070;BME280;43863;52.256;21.048;2022-09-28T01:38:20;98717.75;;;13.40;80.13
58070;BME280;43863;52.256;21.048;2022-09-28T01:40:51;98710.13;;;13.32;80.28
58070;BME280;43863;52.256;21.048;2022-09-28T01:43:22;98714.75;;;13.37;80.64
58070;BME280;43863;52.256;21.048;2022-09-28T01:48:35;98713.91;;;13.36;80.78
58070;BME280;43863;52.256;21.048;2022-09-28T01:51:09;98716.84;;;13.35;80.78
58070;BME280;43863;52.256;21.048;2022-09-28T01:53:46;98719.63;;;13.40;80.75
58070;BME280;43863;52.256;21.048;2022-09-28T01:56:30;98717.50;;;13.42;80.83
58070;BME280;43863;52.256;21.048;2022-09-28T01:59:09;98706.94;;;13.47;80.80
58070;BME280;43863;52.256;21.048;2022-09-28T02:01:46;98710.44;;;13.48;80.75
58070;BME280;43863;52.256;21.048;2022-09-28T02:04:18;98709.84;;;13.46;80.80
58070;BME280;43863;52.256;21.048;2022-09-28T02:07:10;98706.16;;;13.47;80.97
58070;BME280;43863;52.256;21.048;2022-09-28T02:09:44;98699.16;;;13.46;81.05
58070;BME280;43863;52.256;21.048;2022-09-28T02:12:20;98699.06;;;13.52;81.06
58070;BME280;43863;52.256;21.048;2022-09-28T02:14:54;98706.34;;;13.57;80.92
58070;BME280;43863;52.256;21.048;2022-09-28T02:17:26;98705.19;;;13.53;80.62
58070;BME280;43863;52.256;21.048;2022-09-28T02:19:54;98721.44;;;13.51;80.82
58070;BME280;43863;52.256;21.048;2022-09-28T02:22:30;98718.53;;;13.53;81.05
58070;BME280;43863;52.256;21.048;2022-09-28T02:25:07;98733.28;;;13.55;81.16
58070;BME280;43863;52.256;21.048;2022-09-28T02:27:51;98729.06;;;13.59;81.28
58070;BME280;43863;52.256;21.048;2022-09-28T02:30:22;98730.34;;;13.57;81.05
58070;BME280;43863;52.256;21.048;2022-09-28T02:32:53;98723.16;;;13.57;80.98
58070;BME280;43863;52.256;21.048;2022-09-28T02:35:23;98729.88;;;13.60;81.12
58070;BME280;43863;52.256;21.048;2022-09-28T02:37:51;98719.78;;;13.62;81.08
58070;BME280;43863;52.256;21.048;2022-09-28T02:40:24;98719.53;;;13.63;81.05
58070;BME280;43863;52.256;21.048;2022-09-28T02:43:13;98716.06;;;13.63;80.87
58070;BME280;43863;52.256;21.048;2022-09-28T03:00:23;98715.69;;;13.71;80.95
58070;BME280;43863;52.256;21.048;2022-09-28T03:03:08;98709.09;;;13.74;80.79
58070;BME280;43863;52.256;21.048;2022-09-28T03:06:04;98718.38;;;13.71;80.74
58070;BME280;43863;52.256;21.048;2022-09-28T03:09:24;98718.38;;;13.71;80.85
58070;BME280;43863;52.256;21.048;2022-09-28T03:11:37;98714.53;;;13.79;81.20
58070;BME280;43863;52.256;21.048;2022-09-28T03:14:09;98717.53;;;13.82;80.95
58070;BME280;43863;52.256;21.048;2022-09-28T03:16:56;98716.72;;;13.82;81.08
58070;BME280;43863;52.256;21.048;2022-09-28T03:19:28;98721.81;;;13.83;80.78
58070;BME280;43863;52.256;21.048;2022-09-28T03:21:59;98720.78;;;13.84;80.76
58070;BME280;43863;52.256;21.048;2022-09-28T03:24:27;98720.31;;;13.87;80.70
58070;BME280;43863;52.256;21.048;2022-09-28T03:26:55;98717.16;;;13.91;80.67
58070;BME280;43863;52.256;21.048;2022-09-28T03:29:23;98718.53;;;13.93;80.72
58070;BME280;43863;52.256;21.048;2022-09-28T03:31:57;98718.63;;;13.98;80.63
58070;BME280;43863;52.256;21.048;2022-09-28T03:34:25;98723.47;;;14.01;80.35
58070;BME280;43863;52.256;21.048;2022-09-28T03:36:53;98722.19;;;14.04;80.34
58070;BME280;43863;52.256;21.048;2022-09-28T03:39:20;98722.78;;;14.06;80.27
58070;BME280;43863;52.256;21.048;2022-09-28T03:41:52;98726.34;;;14.11;80.20
58070;BME280;43863;52.256;21.048;2022-09-28T03:44:21;98717.53;;;14.11;80.33
58070;BME280;43863;52.256;21.048;2022-09-28T03:46:49;98716.22;;;14.14;80.34
58070;BME280;43863;52.256;21.048;2022-09-28T03:49:17;98714.13;;;14.16;80.31
58070;BME280;43863;52.256;21.048;2022-09-28T03:51:45;98713.06;;;14.17;79.95
58070;BME280;43863;52.256;21.048;2022-09-28T03:54:13;98708.56;;;14.17;79.95
58070;BME280;43863;52.256;21.048;2022-09-28T03:56:41;98713.91;;;14.17;79.91
58070;BME280;43863;52.256;21.048;2022-09-28T03:59:08;98712.63;;;14.20;79.66
58070;BME280;43863;52.256;21.048;2022-09-28T04:01:36;98715.28;;;14.20;79.60
58070;BME280;43863;52.256;21.048;2022-09-28T04:04:05;98707.72;;;14.17;79.30
58070;BME280;43863;52.256;21.048;2022-09-28T04:06:32;98712.53;;;14.15;79.52
58070;BME280;43863;52.256;21.048;2022-09-28T04:09:00;98717.28;;;14.13;79.32
58070;BME280;43863;52.256;21.048;2022-09-28T04:11:29;98710.22;;;14.06;79.06
58070;BME280;43863;52.256;21.048;2022-09-28T04:14:17;98714.50;;;14.07;79.08
58070;BME280;43863;52.256;21.048;2022-09-28T04:16:45;98716.38;;;14.07;79.09
58070;BME280;43863;52.256;21.048;2022-09-28T04:19:15;98717.66;;;14.04;78.96
58070;BME280;43863;52.256;21.048;2022-09-28T04:21:49;98711.50;;;14.04;78.63
58070;BME280;43863;52.256;21.048;2022-09-28T04:24:18;98721.50;;;14.08;78.33
58070;BME280;43863;52.256;21.048;2022-09-28T04:26:47;98729.03;;;14.11;78.13
58070;BME280;43863;52.256;21.048;2022-09-28T04:29:18;98728.13;;;14.06;77.60
58070;BME280;43863;52.256;21.048;2022-09-28T04:31:52;98726.06;;;13.96;77.31
58070;BME280;43863;52.256;21.048;2022-09-28T04:34:31;98717.28;;;13.84;77.23
58070;BME280;43863;52.256;21.048;2022-09-28T04:37:05;98714.75;;;13.77;76.79
58070;BME280;43863;52.256;21.048;2022-09-28T04:39:32;98712.22;;;13.71;76.99
58070;BME280;43863;52.256;21.048;2022-09-28T04:42:02;98715.22;;;13.74;77.15
58070;BME280;43863;52.256;21.048;2022-09-28T04:44:29;98708.13;;;13.80;77.06
58070;BME280;43863;52.256;21.048;2022-09-28T04:47:06;98710.00;;;13.79;76.47
58070;BME280;43863;52.256;21.048;2022-09-28T04:49:43;98715.59;;;13.66;75.99
58070;BME280;43863;52.256;21.048;2022-09-28T04:52:16;98719.78;;;13.62;76.15
58070;BME280;43863;52.256;21.048;2022-09-28T04:54:48;98710.97;;;13.61;75.78
58070;BME280;43863;52.256;21.048;2022-09-28T04:57:16;98704.91;;;13.66;75.79
58070;BME280;43863;52.256;21.048;2022-09-28T04:59:43;98712.13;;;13.65;75.47
58070;BME280;43863;52.256;21.048;2022-09-28T05:02:11;98703.78;;;13.62;75.09
58070;BME280;43863;52.256;21.048;2022-09-28T05:05:20;98710.25;;;13.66;74.77
58070;BME280;43863;52.256;21.048;2022-09-28T05:08:08;98718.38;;;13.71;74.62
58070;BME280;43863;52.256;21.048;2022-09-28T05:10:36;98724.03;;;13.75;74.37
58070;BME280;43863;52.256;21.048;2022-09-28T05:13:08;98721.00;;;13.83;74.34
58070;BME280;43863;52.256;21.048;2022-09-28T05:15:38;98714.38;;;13.85;73.74
58070;BME280;43863;52.256;21.048;2022-09-28T05:18:06;98717.28;;;13.84;73.68
58070;BME280;43863;52.256;21.048;2022-09-28T05:20:53;98725.28;;;13.84;73.48
58070;BME280;43863;52.256;21.048;2022-09-28T05:23:21;98723.44;;;13.84;73.52
58070;BME280;43863;52.256;21.048;2022-09-28T05:25:49;98730.41;;;13.85;73.47
58070;BME280;43863;52.256;21.048;2022-09-28T05:28:26;98731.47;;;13.84;73.40
58070;BME280;43863;52.256;21.048;2022-09-28T05:31:24;98729.81;;;13.83;73.28
58070;BME280;43863;52.256;21.048;2022-09-28T05:34:06;98731.47;;;13.84;73.32
58070;BME280;43863;52.256;21.048;2022-09-28T05:36:35;98724.00;;;13.86;72.94
58070;BME280;43863;52.256;21.048;2022-09-28T05:39:03;98726.66;;;13.86;72.80
58070;BME280;43863;52.256;21.048;2022-09-28T05:41:31;98731.81;;;13.76;72.44
58070;BME280;43863;52.256;21.048;2022-09-28T05:44:00;98729.38;;;13.75;72.20
58070;BME280;43863;52.256;21.048;2022-09-28T05:46:29;98726.84;;;13.68;71.98
58070;BME280;43863;52.256;21.048;2022-09-28T05:48:59;98730.69;;;13.60;72.27
58070;BME280;43863;52.256;21.048;2022-09-28T05:51:27;98731.84;;;13.64;72.08
58070;BME280;43863;52.256;21.048;2022-09-28T05:53:55;98736.38;;;13.64;71.88
58070;BME280;43863;52.256;21.048;2022-09-28T05:56:30;98755.88;;;13.64;71.98
58070;BME280;43863;52.256;21.048;2022-09-28T05:58:58;98763.41;;;13.68;71.84
58070;BME280;43863;52.256;21.048;2022-09-28T06:01:28;98757.47;;;13.65;71.64
58070;BME280;43863;52.256;21.048;2022-09-28T06:03:58;98762.94;;;13.71;71.78
58070;BME280;43863;52.256;21.048;2022-09-28T06:06:26;98766.41;;;13.71;71.48
58070;BME280;43863;52.256;21.048;2022-09-28T06:08:55;98759.53;;;13.75;71.34
58070;BME280;43863;52.256;21.048;2022-09-28T06:11:31;98760.44;;;13.81;71.11
58070;BME280;43863;52.256;21.048;2022-09-28T06:14:04;98773.56;;;13.82;71.37
58070;BME280;43863;52.256;21.048;2022-09-28T06:16:32;98775.03;;;13.90;70.96
58070;BME280;43863;52.256;21.048;2022-09-28T06:19:01;98772.75;;;13.94;70.79
58070;BME280;43863;52.256;21.048;2022-09-28T06:21:37;98769.59;;;13.97;70.24
58070;BME280;43863;52.256;21.048;2022-09-28T06:24:06;98757.16;;;14.02;69.86
58070;BME280;43863;52.256;21.048;2022-09-28T06:26:35;98764.53;;;14.12;69.61
58070;BME280;43863;52.256;21.048;2022-09-28T06:29:04;98766.72;;;14.15;68.83
58070;BME280;43863;52.256;21.048;2022-09-28T06:31:32;98766.97;;;14.14;68.78
58070;BME280;43863;52.256;21.048;2022-09-28T06:34:00;98775.88;;;14.19;68.64
58070;BME280;43863;52.256;21.048;2022-09-28T06:36:28;98772.50;;;14.24;68.84
58070;BME280;43863;52.256;21.048;2022-09-28T06:38:58;98775.19;;;14.24;68.31
58070;BME280;43863;52.256;21.048;2022-09-28T06:41:26;98774.44;;;14.28;68.40
58070;BME280;43863;52.256;21.048;2022-09-28T06:43:58;98773.16;;;14.31;67.71
58070;BME280;43863;52.256;21.048;2022-09-28T06:46:58;98771.28;;;14.31;67.69
58070;BME280;43863;52.256;21.048;2022-09-28T06:49:39;98777.41;;;14.44;67.45
58070;BME280;43863;52.256;21.048;2022-09-28T06:52:27;98789.09;;;14.54;67.13
58070;BME280;43863;52.256;21.048;2022-09-28T06:55:05;98780.31;;;14.71;66.96
58070;BME280;43863;52.256;21.048;2022-09-28T06:58:01;98771.56;;;14.75;66.47
58070;BME280;43863;52.256;21.048;2022-09-28T07:00:32;98778.13;;;14.85;66.59
58070;BME280;43863;52.256;21.048;2022-09-28T07:03:02;98779.09;;;14.95;66.17
58070;BME280;43863;52.256;21.048;2022-09-28T07:05:54;98784.63;;;15.06;65.47
58070;BME280;43863;52.256;21.048;2022-09-28T07:08:42;98793.19;;;15.08;64.91
58070;BME280;43863;52.256;21.048;2022-09-28T07:11:37;98798.22;;;15.04;65.46
58070;BME280;43863;52.256;21.048;2022-09-28T07:14:41;98799.75;;;15.17;65.35
58070;BME280;43863;52.256;21.048;2022-09-28T07:17:15;98801.03;;;15.14;65.38
58070;BME280;43863;52.256;21.048;2022-09-28T07:19:43;98802.78;;;15.20;65.32
58070;BME280;43863;52.256;21.048;2022-09-28T07:22:12;98797.31;;;15.32;65.19
58070;BME280;43863;52.256;21.048;2022-09-28T07:25:12;98790.00;;;15.44;64.84
58070;BME280;43863;52.256;21.048;2022-09-28T07:28:00;98802.09;;;15.47;63.88
58070;BME280;43863;52.256;21.048;2022-09-28T07:30:48;98788.75;;;15.52;64.01
58070;BME280;43863;52.256;21.048;2022-09-28T07:33:37;98794.50;;;15.61;63.58
58070;BME280;43863;52.256;21.048;2022-09-28T07:36:14;98790.50;;;15.63;63.50
58070;BME280;43863;52.256;21.048;2022-09-28T07:39:10;98798.72;;;15.74;63.12
58070;BME280;43863;52.256;21.048;2022-09-28T07:42:04;98802.63;;;15.88;62.91
58070;BME280;43863;52.256;21.048;2022-09-28T07:44:32;98795.53;;;15.99;62.06
58070;BME280;43863;52.256;21.048;2022-09-28T07:47:00;98795.31;;;16.00;61.84
58070;BME280;43863;52.256;21.048;2022-09-28T07:50:12;98801.00;;;16.09;61.01
58070;BME280;43863;52.256;21.048;2022-09-28T07:52:54;98805.06;;;16.11;60.78
58070;BME280;43863;52.256;21.048;2022-09-28T07:55:29;98806.88;;;16.06;61.30
58070;BME280;43863;52.256;21.048;2022-09-28T07:58:40;98807.44;;;16.08;60.78
58070;BME280;43863;52.256;21.048;2022-09-28T08:01:33;98800.63;;;16.22;60.88
58070;BME280;43863;52.256;21.048;2022-09-28T08:04:04;98808.22;;;16.30;60.71
58070;BME280;43863;52.256;21.048;2022-09-28T08:06:34;98818.69;;;16.32;60.16
58070;BME280;43863;52.256;21.048;2022-09-28T08:09:04;98812.78;;;16.30;59.69
58070;BME280;43863;52.256;21.048;2022-09-28T08:12:08;98827.44;;;16.22;58.99
58070;BME280;43863;52.256;21.048;2022-09-28T08:14:47;98821.50;;;16.20;59.27
58070;BME280;43863;52.256;21.048;2022-09-28T08:17:34;98822.50;;;16.14;59.59
58070;BME280;43863;52.256;21.048;2022-09-28T08:20:06;98823.06;;;16.16;59.21
58070;BME280;43863;52.256;21.048;2022-09-28T08:22:53;98826.31;;;16.18;58.92
58070;BME280;43863;52.256;21.048;2022-09-28T08:25:20;98821.47;;;16.15;58.94
58070;BME280;43863;52.256;21.048;2022-09-28T08:27:48;98828.13;;;16.12;58.93
58070;BME280;43863;52.256;21.048;2022-09-28T08:30:16;98825.44;;;16.12;59.14
58070;BME280;43863;52.256;21.048;2022-09-28T08:33:15;98831.19;;;16.21;59.52
58070;BME280;43863;52.256;21.048;2022-09-28T08:36:08;98823.06;;;16.16;58.69
58070;BME280;43863;52.256;21.048;2022-09-28T08:38:55;98829.13;;;16.06;58.87
58070;BME280;43863;52.256;21.048;2022-09-28T08:42:34;98826.25;;;16.13;58.78
58070;BME280;43863;52.256;21.048;2022-09-28T08:45:13;98819.50;;;16.32;58.29
58070;BME280;43863;52.256;21.048;2022-09-28T08:48:01;98824.47;;;16.46;58.04
58070;BME280;43863;52.256;21.048;2022-09-28T08:51:18;98827.88;;;16.63;57.21
58070;BME280;43863;52.256;21.048;2022-09-28T08:54:35;98828.38;;;16.60;57.71
58070;BME280;43863;52.256;21.048;2022-09-28T08:57:27;98827.66;;;16.70;57.60
58070;BME280;43863;52.256;21.048;2022-09-28T08:59:58;98834.13;;;16.74;57.50
58070;BME280;43863;52.256;21.048;2022-09-28T09:02:34;98840.47;;;16.90;57.22
58070;BME280;43863;52.256;21.048;2022-09-28T09:05:15;98835.97;;;16.95;57.04
58070;BME280;43863;52.256;21.048;2022-09-28T09:08:07;98832.47;;;16.95;56.79
58070;BME280;43863;52.256;21.048;2022-09-28T09:16:27;98843.66;;;16.87;55.68
58070;BME280;43863;52.256;21.048;2022-09-28T09:25:22;98835.66;;;16.92;55.73
58070;BME280;43863;52.256;21.048;2022-09-28T09:30:45;98840.34;;;17.06;55.25
58070;BME280;43863;52.256;21.048;2022-09-28T09:33:50;98843.34;;;17.15;55.13
58070;BME280;43863;52.256;21.048;2022-09-28T09:40:03;98842.53;;;17.47;54.59
58070;BME280;43863;52.256;21.048;2022-09-28T09:49:35;98850.38;;;17.96;52.90
58070;BME280;43863;52.256;21.048;2022-09-28T09:57:43;98856.34;;;18.18;51.70
58070;BME280;43863;52.256;21.048;2022-09-28T10:00:32;98857.25;;;18.34;51.73
58070;BME280;43863;52.256;21.048;2022-09-28T10:03:24;98856.44;;;18.39;50.51
58070;BME280;43863;52.256;21.048;2022-09-28T10:06:03;98848.66;;;18.37;50.06
58070;BME280;43863;52.256;21.048;2022-09-28T10:08:36;98855.78;;;18.06;49.55
58070;BME280;43863;52.256;21.048;2022-09-28T10:11:11;98854.06;;;17.85;50.26
58070;BME280;43863;52.256;21.048;2022-09-28T10:13:48;98860.75;;;17.82;50.00
58070;BME280;43863;52.256;21.048;2022-09-28T10:16:53;98866.66;;;17.79;49.84
58070;BME280;43863;52.256;21.048;2022-09-28T10:19:42;98856.63;;;17.69;49.70
58070;BME280;43863;52.256;21.048;2022-09-28T10:22:42;98862.00;;;17.69;49.65
58070;BME280;43863;52.256;21.048;2022-09-28T10:25:16;98861.78;;;17.76;49.25
58070;BME280;43863;52.256;21.048;2022-09-28T10:27:46;98860.47;;;17.79;49.40
58070;BME280;43863;52.256;21.048;2022-09-28T10:30:23;98865.91;;;17.89;49.29
58070;BME280;43863;52.256;21.048;2022-09-28T10:32:53;98863.56;;;18.03;49.55
58070;BME280;43863;52.256;21.048;2022-09-28T10:35:40;98859.53;;;18.05;48.77
58070;BME280;43863;52.256;21.048;2022-09-28T10:38:17;98864.09;;;18.00;49.67
58070;BME280;43863;52.256;21.048;2022-09-28T10:40:58;98864.84;;;17.90;49.50
58070;BME280;43863;52.256;21.048;2022-09-28T10:43:57;98862.03;;;17.74;48.68
58070;BME280;43863;52.256;21.048;2022-09-28T10:46:59;98862.66;;;17.82;49.20
58070;BME280;43863;52.256;21.048;2022-09-28T10:49:40;98866.22;;;17.98;48.51
58070;BME280;43863;52.256;21.048;2022-09-28T10:52:42;98856.13;;;18.30;48.24
58070;BME280;43863;52.256;21.048;2022-09-28T11:01:53;98855.00;;;18.16;48.34
58070;BME280;43863;52.256;21.048;2022-09-28T11:04:25;98854.13;;;18.00;48.23
58070;BME280;43863;52.256;21.048;2022-09-28T11:06:55;98856.41;;;17.76;48.09
58070;BME280;43863;52.256;21.048;2022-09-28T11:09:32;98859.53;;;17.58;48.40
58070;BME280;43863;52.256;21.048;2022-09-28T11:12:14;98864.50;;;17.44;48.79
58070;BME280;43863;52.256;21.048;2022-09-28T11:14:42;98867.44;;;17.37;49.24
58070;BME280;43863;52.256;21.048;2022-09-28T11:17:28;98862.28;;;17.31;49.73
58070;BME280;43863;52.256;21.048;2022-09-28T11:19:59;98859.09;;;17.39;50.21
58070;BME280;43863;52.256;21.048;2022-09-28T11:22:37;98854.63;;;17.49;50.16
58070;BME280;43863;52.256;21.048;2022-09-28T11:30:21;98850.22;;;18.23;49.98
58070;BME280;43863;52.256;21.048;2022-09-28T11:33:15;98852.72;;;18.50;48.93
58070;BME280;43863;52.256;21.048;2022-09-28T11:36:19;98848.44;;;18.64;47.85
58070;BME280;43863;52.256;21.048;2022-09-28T11:44:37;98851.19;;;18.85;47.31
58070;BME280;43863;52.256;21.048;2022-09-28T11:49:53;98860.06;;;18.96;46.59
58070;BME280;43863;52.256;21.048;2022-09-28T11:52:34;98852.03;;;18.91;46.84
58070;BME280;43863;52.256;21.048;2022-09-28T11:57:41;98862.13;;;18.63;46.43
58070;BME280;43863;52.256;21.048;2022-09-28T12:00:14;98860.53;;;18.52;46.92
58070;BME280;43863;52.256;21.048;2022-09-28T12:05:42;98868.00;;;18.39;47.07
58070;BME280;43863;52.256;21.048;2022-09-28T12:08:22;98869.41;;;18.52;47.29
58070;BME280;43863;52.256;21.048;2022-09-28T12:11:13;98858.13;;;18.60;47.26
58070;BME280;43863;52.256;21.048;2022-09-28T12:14:05;98864.59;;;18.70;47.49
58070;BME280;43863;52.256;21.048;2022-09-28T12:16:48;98876.69;;;18.67;45.65
58070;BME280;43863;52.256;21.048;2022-09-28T12:20:09;98876.97;;;18.60;45.67
58070;BME280;43863;52.256;21.048;2022-09-28T12:23:03;98872.44;;;18.76;45.44
58070;BME280;43863;52.256;21.048;2022-09-28T12:25:39;98871.94;;;19.00;45.01
58070;BME280;43863;52.256;21.048;2022-09-28T12:28:33;98864.94;;;19.29;44.70
58070;BME280;43863;52.256;21.048;2022-09-28T12:31:15;98867.66;;;19.35;44.36
58070;BME280;43863;52.256;21.048;2022-09-28T12:33:47;98864.91;;;19.40;44.44
58070;BME280;43863;52.256;21.048;2022-09-28T12:45:41;98868.19;;;19.26;43.68
58070;BME280;43863;52.256;21.048;2022-09-28T12:49:00;98856.59;;;19.16;44.37
58070;BME280;43863;52.256;21.048;2022-09-28T12:51:54;98858.72;;;19.14;44.16
58070;BME280;43863;52.256;21.048;2022-09-28T12:59:42;98855.25;;;19.18;43.55
58070;BME280;43863;52.256;21.048;2022-09-28T13:06:24;98856.75;;;18.63;44.21
58070;BME280;43863;52.256;21.048;2022-09-28T13:09:22;98850.00;;;18.45;44.77
58070;BME280;43863;52.256;21.048;2022-09-28T13:17:03;98866.81;;;18.05;45.65
58070;BME280;43863;52.256;21.048;2022-09-28T13:20:11;98861.41;;;18.00;47.20
58070;BME280;43863;52.256;21.048;2022-09-28T13:28:28;98863.72;;;17.43;49.84
58070;BME280;43863;52.256;21.048;2022-09-28T13:31:04;98853.97;;;17.32;50.28
58070;BME280;43863;52.256;21.048;2022-09-28T13:33:40;98852.09;;;17.33;50.58
58070;BME280;43863;52.256;21.048;2022-09-28T13:38:58;98854.56;;;17.39;51.41
58070;BME280;43863;52.256;21.048;2022-09-28T13:50:02;98848.69;;;17.85;50.08
58070;BME280;43863;52.256;21.048;2022-09-28T13:55:22;98842.09;;;18.13;49.96
58070;BME280;43863;52.256;21.048;2022-09-28T13:58:40;98838.38;;;18.24;50.09
58070;BME280;43863;52.256;21.048;2022-09-28T14:00:52;98840.03;;;18.35;49.89
58070;BME280;43863;52.256;21.048;2022-09-28T14:03:25;98842.47;;;18.37;49.41
58070;BME280;43863;52.256;21.048;2022-09-28T14:08:38;98835.66;;;18.14;48.16
58070;BME280;43863;52.256;21.048;2022-09-28T14:16:35;98845.00;;;18.01;45.96
58070;BME280;43863;52.256;21.048;2022-09-28T14:19:22;98839.88;;;17.94;45.87
58070;BME280;43863;52.256;21.048;2022-09-28T14:24:49;98837.66;;;17.86;45.76
58070;BME280;43863;52.256;21.048;2022-09-28T14:30:48;98837.38;;;17.78;45.60
58070;BME280;43863;52.256;21.048;2022-09-28T14:38:31;98843.84;;;17.39;45.95
58070;BME280;43863;52.256;21.048;2022-09-28T14:41:35;98843.00;;;17.39;46.23
58070;BME280;43863;52.256;21.048;2022-09-28T14:46:39;98842.16;;;17.33;46.69
58070;BME280;43863;52.256;21.048;2022-09-28T14:54:21;98847.63;;;17.11;47.24
58070;BME280;43863;52.256;21.048;2022-09-28T14:59:27;98845.91;;;17.00;47.53
58070;BME280;43863;52.256;21.048;2022-09-28T15:02:14;98848.38;;;17.06;47.81
58070;BME280;43863;52.256;21.048;2022-09-28T15:07:19;98850.81;;;17.08;48.83
58070;BME280;43863;52.256;21.048;2022-09-28T15:09:53;98857.56;;;17.11;48.67
58070;BME280;43863;52.256;21.048;2022-09-28T15:12:30;98863.50;;;17.13;48.65
58070;BME280;43863;52.256;21.048;2022-09-28T15:15:06;98862.66;;;17.12;48.68
58070;BME280;43863;52.256;21.048;2022-09-28T15:17:53;98857.34;;;17.17;49.14
58070;BME280;43863;52.256;21.048;2022-09-28T15:20:28;98853.03;;;17.16;48.75
58070;BME280;43863;52.256;21.048;2022-09-28T15:22:58;98853.84;;;17.17;48.89
58070;BME280;43863;52.256;21.048;2022-09-28T15:25:30;98857.34;;;17.17;49.21
58070;BME280;43863;52.256;21.048;2022-09-28T15:28:01;98868.03;;;17.12;49.34
58070;BME280;43863;52.256;21.048;2022-09-28T15:30:40;98866.88;;;17.03;49.26
58070;BME280;43863;52.256;21.048;2022-09-28T15:33:23;98859.63;;;17.03;49.54
58070;BME280;43863;52.256;21.048;2022-09-28T15:36:22;98855.00;;;16.94;49.45
58070;BME280;43863;52.256;21.048;2022-09-28T15:38:57;98860.28;;;16.89;49.59
58070;BME280;43863;52.256;21.048;2022-09-28T15:41:27;98845.19;;;16.77;49.48
58070;BME280;43863;52.256;21.048;2022-09-28T15:46:42;98838.94;;;16.72;50.32
58070;BME280;43863;52.256;21.048;2022-09-28T15:49:54;98854.72;;;16.68;50.14
58070;BME280;43863;52.256;21.048;2022-09-28T15:54:56;98846.34;;;16.65;51.25
58070;BME280;43863;52.256;21.048;2022-09-28T15:57:39;98844.25;;;16.67;51.79
58070;BME280;43863;52.256;21.048;2022-09-28T16:00:31;98836.72;;;16.64;51.92
58070;BME280;43863;52.256;21.048;2022-09-28T16:05:43;98839.09;;;16.60;51.93
58070;BME280;43863;52.256;21.048;2022-09-28T16:08:21;98848.16;;;16.54;52.15
58070;BME280;43863;52.256;21.048;2022-09-28T16:13:32;98862.56;;;16.48;52.96
58070;BME280;43863;52.256;21.048;2022-09-28T16:16:01;98856.88;;;16.44;53.28
58070;BME280;43863;52.256;21.048;2022-09-28T16:18:29;98850.97;;;16.42;53.37
58070;BME280;43863;52.256;21.048;2022-09-28T16:21:43;98843.16;;;16.41;53.40
58070;BME280;43863;52.256;21.048;2022-09-28T16:24:25;98847.06;;;16.28;53.48
58070;BME280;43863;52.256;21.048;2022-09-28T16:27:03;98845.06;;;16.18;54.07
58070;BME280;43863;52.256;21.048;2022-09-28T16:29:36;98837.53;;;16.15;54.26
58070;BME280;43863;52.256;21.048;2022-09-28T16:37:39;98831.06;;;15.89;55.36
58070;BME280;43863;52.256;21.048;2022-09-28T16:40:09;98828.28;;;15.84;55.17
58070;BME280;43863;52.256;21.048;2022-09-28T16:42:39;98829.03;;;15.79;55.68
58070;BME280;43863;52.256;21.048;2022-09-28T16:45:18;98834.38;;;15.79;55.98